sensor_id;sensor_type;location;lat;lon;timestamp;temperature;humidity
67598;DHT22;62026;39.230;9.122;2023-03-14T00:02:26;14.80;69.70
67598;DHT22;62026;39.230;9.122;2023-03-14T00:04:56;14.80;69.40
67598;DHT22;62026;39.230;9.122;2023-03-14T00:07:22;14.70;68.80
67598;DHT22;62026;39.230;9.122;2023-03-14T00:09:50;14.70;68.70
67598;DHT22;62026;39.230;9.122;2023-03-14T00:12:16;14.70;68.10
67598;DHT22;62026;39.230;9.122;2023-03-14T00:14:43;14.90;68.20
67598;DHT22;62026;39.230;9.122;2023-03-14T00:17:09;14.90;66.40
67598;DHT22;62026;39.230;9.122;2023-03-14T00:19:35;15.00;66.90
67598;DHT22;62026;39.230;9.122;2023-03-14T00:22:01;15.10;65.60
67598;DHT22;62026;39.230;9.122;2023-03-14T00:24:27;15.00;64.60
67598;DHT22;62026;39.230;9.122;2023-03-14T00:26:53;15.00;64.40
67598;DHT22;62026;39.230;9.122;2023-03-14T00:29:18;15.00;63.30
67598;DHT22;62026;39.230;9.122;2023-03-14T00:31:44;15.00;63.90
67598;DHT22;62026;39.230;9.122;2023-03-14T00:34:10;15.00;62.70
67598;DHT22;62026;39.230;9.122;2023-03-14T00:36:36;15.10;63.30
67598;DHT22;62026;39.230;9.122;2023-03-14T00:39:02;15.10;62.70
67598;DHT22;62026;39.230;9.122;2023-03-14T00:41:30;15.10;62.60
67598;DHT22;62026;39.230;9.122;2023-03-14T00:43:56;15.00;62.60
67598;DHT22;62026;39.230;9.122;2023-03-14T00:46:22;14.90;62.60
67598;DHT22;62026;39.230;9.122;2023-03-14T00:48:48;14.90;63.10
67598;DHT22;62026;39.230;9.122;2023-03-14T00:51:15;14.80;63.60
67598;DHT22;62026;39.230;9.122;2023-03-14T00:53:43;14.90;63.70
67598;DHT22;62026;39.230;9.122;2023-03-14T00:56:11;15.00;63.80
67598;DHT22;62026;39.230;9.122;2023-03-14T00:58:38;15.00;63.70
67598;DHT22;62026;39.230;9.122;2023-03-14T01:01:10;15.00;63.70
67598;DHT22;62026;39.230;9.122;2023-03-14T01:03:38;15.00;63.50
67598;DHT22;62026;39.230;9.122;2023-03-14T01:06:13;15.00;63.90
67598;DHT22;62026;39.230;9.122;2023-03-14T01:08:42;15.00;64.20
67598;DHT22;62026;39.230;9.122;2023-03-14T01:11:17;14.90;64.50
67598;DHT22;62026;39.230;9.122;2023-03-14T01:13:46;14.80;65.10
67598;DHT22;62026;39.230;9.122;2023-03-14T01:16:13;14.80;65.40
67598;DHT22;62026;39.230;9.122;2023-03-14T01:18:41;14.70;65.80
67598;DHT22;62026;39.230;9.122;2023-03-14T01:21:35;14.60;66.20
67598;DHT22;62026;39.230;9.122;2023-03-14T01:24:02;14.70;66.50
67598;DHT22;62026;39.230;9.122;2023-03-14T01:26:32;14.70;66.70
67598;DHT22;62026;39.230;9.122;2023-03-14T01:29:00;14.80;66.70
67598;DHT22;62026;39.230;9.122;2023-03-14T01:31:27;14.80;67.00
67598;DHT22;62026;39.230;9.122;2023-03-14T01:33:54;14.90;66.90
67598;DHT22;62026;39.230;9.122;2023-03-14T01:36:20;14.80;67.30
67598;DHT22;62026;39.230;9.122;2023-03-14T01:38:46;14.80;67.50
67598;DHT22;62026;39.230;9.122;2023-03-14T01:41:20;14.80;67.40
67598;DHT22;62026;39.230;9.122;2023-03-14T01:43:48;14.80;67.50
67598;DHT22;62026;39.230;9.122;2023-03-14T01:46:20;14.70;67.70
67598;DHT22;62026;39.230;9.122;2023-03-14T01:48:54;14.70;67.70
67598;DHT22;62026;39.230;9.122;2023-03-14T01:51:27;14.80;67.80
67598;DHT22;62026;39.230;9.122;2023-03-14T01:54:07;14.90;67.40
67598;DHT22;62026;39.230;9.122;2023-03-14T01:56:39;15.00;67.60
67598;DHT22;62026;39.230;9.122;2023-03-14T01:59:10;14.90;67.70
67598;DHT22;62026;39.230;9.122;2023-03-14T02:01:38;14.90;67.60
67598;DHT22;62026;39.230;9.122;2023-03-14T02:04:08;15.00;67.50
67598;DHT22;62026;39.230;9.122;2023-03-14T02:07:00;14.90;67.50
67598;DHT22;62026;39.230;9.122;2023-03-14T02:09:39;15.00;67.40
67598;DHT22;62026;39.230;9.122;2023-03-14T02:12:09;15.00;67.70
67598;DHT22;62026;39.230;9.122;2023-03-14T02:14:49;14.90;68.10
67598;DHT22;62026;39.230;9.122;2023-03-14T02:17:22;14.80;68.60
67598;DHT22;62026;39.230;9.122;2023-03-14T02:22:55;14.80;68.60
67598;DHT22;62026;39.230;9.122;2023-03-14T02:28:20;14.90;68.60
67598;DHT22;62026;39.230;9.122;2023-03-14T02:30:51;14.90;68.70
67598;DHT22;62026;39.230;9.122;2023-03-14T02:33:19;14.90;68.60
67598;DHT22;62026;39.230;9.122;2023-03-14T02:36:00;15.00;68.50
67598;DHT22;62026;39.230;9.122;2023-03-14T02:38:34;15.10;68.00
67598;DHT22;62026;39.230;9.122;2023-03-14T02:41:04;15.20;67.80
67598;DHT22;62026;39.230;9.122;2023-03-14T02:43:35;15.10;67.70
67598;DHT22;62026;39.230;9.122;2023-03-14T02:46:05;15.20;67.70
67598;DHT22;62026;39.230;9.122;2023-03-14T02:48:43;15.20;67.70
67598;DHT22;62026;39.230;9.122;2023-03-14T02:51:23;15.20;67.50
67598;DHT22;62026;39.230;9.122;2023-03-14T02:53:51;15.20;67.50
67598;DHT22;62026;39.230;9.122;2023-03-14T02:56:18;15.20;67.40
67598;DHT22;62026;39.230;9.122;2023-03-14T02:58:44;15.20;67.40
67598;DHT22;62026;39.230;9.122;2023-03-14T03:01:30;15.20;67.40
67598;DHT22;62026;39.230;9.122;2023-03-14T03:03:58;15.20;67.40
67598;DHT22;62026;39.230;9.122;2023-03-14T03:06:24;15.20;67.40
67598;DHT22;62026;39.230;9.122;2023-03-14T03:08:50;15.30;67.20
67598;DHT22;62026;39.230;9.122;2023-03-14T03:11:16;15.20;67.30
67598;DHT22;62026;39.230;9.122;2023-03-14T03:13:42;15.20;67.30
67598;DHT22;62026;39.230;9.122;2023-03-14T03:16:09;15.20;67.30
67598;DHT22;62026;39.230;9.122;2023-03-14T03:18:35;15.20;67.30
67598;DHT22;62026;39.230;9.122;2023-03-14T03:21:03;15.20;67.30
67598;DHT22;62026;39.230;9.122;2023-03-14T03:23:31;15.20;67.40
67598;DHT22;62026;39.230;9.122;2023-03-14T03:25:57;15.20;67.60
67598;DHT22;62026;39.230;9.122;2023-03-14T03:28:23;15.30;67.50
67598;DHT22;62026;39.230;9.122;2023-03-14T03:30:50;15.30;67.50
67598;DHT22;62026;39.230;9.122;2023-03-14T03:33:17;15.30;67.50
67598;DHT22;62026;39.230;9.122;2023-03-14T03:35:45;15.40;67.50
67598;DHT22;62026;39.230;9.122;2023-03-14T03:38:16;15.30;67.60
67598;DHT22;62026;39.230;9.122;2023-03-14T03:40:44;15.30;67.70
67598;DHT22;62026;39.230;9.122;2023-03-14T03:43:11;15.30;67.70
67598;DHT22;62026;39.230;9.122;2023-03-14T03:45:39;15.30;67.90
67598;DHT22;62026;39.230;9.122;2023-03-14T03:48:06;15.40;68.20
67598;DHT22;62026;39.230;9.122;2023-03-14T03:50:32;15.40;68.00
67598;DHT22;62026;39.230;9.122;2023-03-14T03:52:58;15.30;68.60
67598;DHT22;62026;39.230;9.122;2023-03-14T03:55:24;15.40;68.20
67598;DHT22;62026;39.230;9.122;2023-03-14T03:57:51;15.40;68.30
67598;DHT22;62026;39.230;9.122;2023-03-14T04:00:18;15.40;68.30
67598;DHT22;62026;39.230;9.122;2023-03-14T04:02:44;15.30;69.10
67598;DHT22;62026;39.230;9.122;2023-03-14T04:05:13;15.30;69.20
67598;DHT22;62026;39.230;9.122;2023-03-14T04:07:45;15.20;69.30
67598;DHT22;62026;39.230;9.122;2023-03-14T04:10:15;15.30;69.20
67598;DHT22;62026;39.230;9.122;2023-03-14T04:12:48;15.30;69.30
67598;DHT22;62026;39.230;9.122;2023-03-14T04:15:18;15.30;69.20
67598;DHT22;62026;39.230;9.122;2023-03-14T04:17:48;15.40;68.90
67598;DHT22;62026;39.230;9.122;2023-03-14T04:20:14;15.40;68.90
67598;DHT22;62026;39.230;9.122;2023-03-14T04:22:40;15.30;69.00
67598;DHT22;62026;39.230;9.122;2023-03-14T04:25:07;15.30;68.80
67598;DHT22;62026;39.230;9.122;2023-03-14T04:27:38;15.30;68.60
67598;DHT22;62026;39.230;9.122;2023-03-14T04:30:10;15.20;68.80
67598;DHT22;62026;39.230;9.122;2023-03-14T04:32:55;15.20;69.00
67598;DHT22;62026;39.230;9.122;2023-03-14T04:35:23;15.20;69.10
67598;DHT22;62026;39.230;9.122;2023-03-14T04:37:53;15.20;69.20
67598;DHT22;62026;39.230;9.122;2023-03-14T04:40:20;15.10;69.60
67598;DHT22;62026;39.230;9.122;2023-03-14T04:42:48;15.10;70.00
67598;DHT22;62026;39.230;9.122;2023-03-14T04:45:15;15.10;70.10
67598;DHT22;62026;39.230;9.122;2023-03-14T04:47:42;15.10;70.30
67598;DHT22;62026;39.230;9.122;2023-03-14T04:50:11;15.10;70.20
67598;DHT22;62026;39.230;9.122;2023-03-14T04:52:38;15.10;70.30
67598;DHT22;62026;39.230;9.122;2023-03-14T04:55:04;15.10;70.10
67598;DHT22;62026;39.230;9.122;2023-03-14T04:57:31;15.20;70.10
67598;DHT22;62026;39.230;9.122;2023-03-14T04:59:57;15.10;70.30
67598;DHT22;62026;39.230;9.122;2023-03-14T05:02:43;15.00;70.80
67598;DHT22;62026;39.230;9.122;2023-03-14T05:05:21;15.00;70.80
67598;DHT22;62026;39.230;9.122;2023-03-14T05:08:06;15.00;71.10
67598;DHT22;62026;39.230;9.122;2023-03-14T05:10:53;15.00;71.70
67598;DHT22;62026;39.230;9.122;2023-03-14T05:13:40;15.00;71.50
67598;DHT22;62026;39.230;9.122;2023-03-14T05:16:25;15.00;71.30
67598;DHT22;62026;39.230;9.122;2023-03-14T05:18:51;15.10;71.00
67598;DHT22;62026;39.230;9.122;2023-03-14T05:21:35;15.00;70.60
67598;DHT22;62026;39.230;9.122;2023-03-14T05:24:32;15.00;70.10
67598;DHT22;62026;39.230;9.122;2023-03-14T05:27:02;15.00;69.90
67598;DHT22;62026;39.230;9.122;2023-03-14T05:29:58;14.90;69.80
67598;DHT22;62026;39.230;9.122;2023-03-14T05:32:44;14.90;69.80
67598;DHT22;62026;39.230;9.122;2023-03-14T05:35:17;14.90;69.80
67598;DHT22;62026;39.230;9.122;2023-03-14T05:38:13;14.90;70.00
67598;DHT22;62026;39.230;9.122;2023-03-14T05:41:15;14.90;70.40
67598;DHT22;62026;39.230;9.122;2023-03-14T05:43:52;14.90;70.50
67598;DHT22;62026;39.230;9.122;2023-03-14T05:46:36;14.90;70.20
67598;DHT22;62026;39.230;9.122;2023-03-14T05:49:22;14.80;69.90
67598;DHT22;62026;39.230;9.122;2023-03-14T05:52:07;14.80;69.80
67598;DHT22;62026;39.230;9.122;2023-03-14T05:54:46;14.80;69.70
67598;DHT22;62026;39.230;9.122;2023-03-14T05:57:12;14.80;69.80
67598;DHT22;62026;39.230;9.122;2023-03-14T05:59:56;14.80;70.20
67598;DHT22;62026;39.230;9.122;2023-03-14T06:02:38;14.80;70.40
67598;DHT22;62026;39.230;9.122;2023-03-14T06:05:13;14.80;70.60
67598;DHT22;62026;39.230;9.122;2023-03-14T06:07:40;14.80;70.70
67598;DHT22;62026;39.230;9.122;2023-03-14T06:10:06;14.80;70.90
67598;DHT22;62026;39.230;9.122;2023-03-14T06:12:33;14.80;71.00
67598;DHT22;62026;39.230;9.122;2023-03-14T06:14:59;14.80;71.10
67598;DHT22;62026;39.230;9.122;2023-03-14T06:17:25;14.80;71.70
67598;DHT22;62026;39.230;9.122;2023-03-14T06:19:59;14.80;71.80
67598;DHT22;62026;39.230;9.122;2023-03-14T06:22:26;14.80;72.30
67598;DHT22;62026;39.230;9.122;2023-03-14T06:24:53;14.80;72.40
67598;DHT22;62026;39.230;9.122;2023-03-14T06:27:20;14.80;72.30
67598;DHT22;62026;39.230;9.122;2023-03-14T06:29:47;14.80;72.30
67598;DHT22;62026;39.230;9.122;2023-03-14T06:32:13;14.80;72.20
67598;DHT22;62026;39.230;9.122;2023-03-14T06:34:40;14.90;72.20
67598;DHT22;62026;39.230;9.122;2023-03-14T06:37:06;14.90;72.00
67598;DHT22;62026;39.230;9.122;2023-03-14T06:39:33;14.90;72.00
67598;DHT22;62026;39.230;9.122;2023-03-14T06:42:05;14.90;71.80
67598;DHT22;62026;39.230;9.122;2023-03-14T06:44:32;15.00;71.70
67598;DHT22;62026;39.230;9.122;2023-03-14T06:46:58;15.10;71.60
67598;DHT22;62026;39.230;9.122;2023-03-14T06:49:24;15.20;71.50
67598;DHT22;62026;39.230;9.122;2023-03-14T06:51:53;15.30;71.20
67598;DHT22;62026;39.230;9.122;2023-03-14T06:54:19;15.50;71.20
67598;DHT22;62026;39.230;9.122;2023-03-14T06:56:46;15.60;70.70
67598;DHT22;62026;39.230;9.122;2023-03-14T06:59:13;15.70;70.50
67598;DHT22;62026;39.230;9.122;2023-03-14T07:01:40;15.90;69.90
67598;DHT22;62026;39.230;9.122;2023-03-14T07:04:09;16.10;69.50
67598;DHT22;62026;39.230;9.122;2023-03-14T07:06:39;16.30;69.30
67598;DHT22;62026;39.230;9.122;2023-03-14T07:09:13;16.50;68.60
67598;DHT22;62026;39.230;9.122;2023-03-14T07:11:46;16.70;68.10
67598;DHT22;62026;39.230;9.122;2023-03-14T07:14:12;16.70;69.80
67598;DHT22;62026;39.230;9.122;2023-03-14T07:16:38;16.90;68.80
67598;DHT22;62026;39.230;9.122;2023-03-14T07:19:06;17.00;68.60
67598;DHT22;62026;39.230;9.122;2023-03-14T07:21:32;17.20;68.40
67598;DHT22;62026;39.230;9.122;2023-03-14T07:24:01;17.40;67.80
67598;DHT22;62026;39.230;9.122;2023-03-14T07:26:30;17.60;67.40
67598;DHT22;62026;39.230;9.122;2023-03-14T07:28:56;17.80;66.70
67598;DHT22;62026;39.230;9.122;2023-03-14T07:31:22;18.00;66.20
67598;DHT22;62026;39.230;9.122;2023-03-14T07:33:49;18.20;66.00
67598;DHT22;62026;39.230;9.122;2023-03-14T07:36:16;18.30;65.40
67598;DHT22;62026;39.230;9.122;2023-03-14T07:38:44;18.50;64.80
67598;DHT22;62026;39.230;9.122;2023-03-14T07:41:33;18.70;64.20
67598;DHT22;62026;39.230;9.122;2023-03-14T07:44:18;18.80;63.90
67598;DHT22;62026;39.230;9.122;2023-03-14T07:46:44;18.90;63.90
67598;DHT22;62026;39.230;9.122;2023-03-14T07:49:10;19.00;63.10
67598;DHT22;62026;39.230;9.122;2023-03-14T07:51:36;19.20;61.90
67598;DHT22;62026;39.230;9.122;2023-03-14T07:54:02;19.30;61.30
67598;DHT22;62026;39.230;9.122;2023-03-14T07:56:28;19.40;61.00
67598;DHT22;62026;39.230;9.122;2023-03-14T07:58:54;19.40;60.40
67598;DHT22;62026;39.230;9.122;2023-03-14T08:01:20;19.50;60.40
67598;DHT22;62026;39.230;9.122;2023-03-14T08:03:46;19.70;60.30
67598;DHT22;62026;39.230;9.122;2023-03-14T08:06:12;19.70;59.80
67598;DHT22;62026;39.230;9.122;2023-03-14T08:08:38;19.80;59.30
67598;DHT22;62026;39.230;9.122;2023-03-14T08:11:05;19.90;59.00
67598;DHT22;62026;39.230;9.122;2023-03-14T08:13:35;20.10;58.80
67598;DHT22;62026;39.230;9.122;2023-03-14T08:16:02;20.20;58.80
67598;DHT22;62026;39.230;9.122;2023-03-14T08:18:28;20.20;58.80
67598;DHT22;62026;39.230;9.122;2023-03-14T08:20:54;20.30;58.80
67598;DHT22;62026;39.230;9.122;2023-03-14T08:23:20;20.50;58.50
67598;DHT22;62026;39.230;9.122;2023-03-14T08:25:48;20.60;58.50
67598;DHT22;62026;39.230;9.122;2023-03-14T08:28:16;20.70;58.30
67598;DHT22;62026;39.230;9.122;2023-03-14T08:30:43;20.80;58.20
67598;DHT22;62026;39.230;9.122;2023-03-14T08:33:09;21.00;58.20
67598;DHT22;62026;39.230;9.122;2023-03-14T08:35:37;21.10;57.80
67598;DHT22;62026;39.230;9.122;2023-03-14T08:38:03;21.30;58.20
67598;DHT22;62026;39.230;9.122;2023-03-14T08:40:29;21.50;57.90
67598;DHT22;62026;39.230;9.122;2023-03-14T08:42:55;21.50;57.70
67598;DHT22;62026;39.230;9.122;2023-03-14T08:45:21;21.60;57.30
67598;DHT22;62026;39.230;9.122;2023-03-14T08:47:49;21.70;57.20
67598;DHT22;62026;39.230;9.122;2023-03-14T08:50:15;21.70;57.00
67598;DHT22;62026;39.230;9.122;2023-03-14T08:52:41;21.80;56.90
67598;DHT22;62026;39.230;9.122;2023-03-14T08:55:08;22.00;56.50
67598;DHT22;62026;39.230;9.122;2023-03-14T08:57:35;22.10;56.00
67598;DHT22;62026;39.230;9.122;2023-03-14T09:00:03;22.10;55.90
67598;DHT22;62026;39.230;9.122;2023-03-14T09:02:41;22.20;55.80
67598;DHT22;62026;39.230;9.122;2023-03-14T09:05:08;22.40;55.10
67598;DHT22;62026;39.230;9.122;2023-03-14T09:07:36;21.90;55.60
67598;DHT22;62026;39.230;9.122;2023-03-14T09:10:04;22.00;55.40
67598;DHT22;62026;39.230;9.122;2023-03-14T09:12:30;21.90;55.40
67598;DHT22;62026;39.230;9.122;2023-03-14T09:14:56;21.90;55.60
67598;DHT22;62026;39.230;9.122;2023-03-14T09:17:22;21.80;55.80
67598;DHT22;62026;39.230;9.122;2023-03-14T09:19:48;21.70;56.10
67598;DHT22;62026;39.230;9.122;2023-03-14T09:22:14;21.50;55.70
67598;DHT22;62026;39.230;9.122;2023-03-14T09:24:41;21.70;55.70
67598;DHT22;62026;39.230;9.122;2023-03-14T09:27:07;22.00;55.20
67598;DHT22;62026;39.230;9.122;2023-03-14T09:29:33;22.30;54.50
67598;DHT22;62026;39.230;9.122;2023-03-14T09:32:00;22.40;54.20
67598;DHT22;62026;39.230;9.122;2023-03-14T09:34:26;22.40;54.10
67598;DHT22;62026;39.230;9.122;2023-03-14T09:36:52;22.10;54.40
67598;DHT22;62026;39.230;9.122;2023-03-14T09:39:19;22.10;54.70
67598;DHT22;62026;39.230;9.122;2023-03-14T09:41:47;22.10;54.90
67598;DHT22;62026;39.230;9.122;2023-03-14T09:44:33;22.00;55.00
67598;DHT22;62026;39.230;9.122;2023-03-14T09:47:06;21.90;55.10
67598;DHT22;62026;39.230;9.122;2023-03-14T09:49:39;22.20;54.80
67598;DHT22;62026;39.230;9.122;2023-03-14T09:52:25;22.00;55.30
67598;DHT22;62026;39.230;9.122;2023-03-14T09:55:13;21.60;56.00
67598;DHT22;62026;39.230;9.122;2023-03-14T09:57:44;21.10;56.00
67598;DHT22;62026;39.230;9.122;2023-03-14T10:00:23;20.90;55.10
67598;DHT22;62026;39.230;9.122;2023-03-14T10:03:05;20.80;54.00
67598;DHT22;62026;39.230;9.122;2023-03-14T10:05:47;21.00;53.10
67598;DHT22;62026;39.230;9.122;2023-03-14T10:08:14;21.10;52.80
67598;DHT22;62026;39.230;9.122;2023-03-14T10:10:40;21.40;52.40
67598;DHT22;62026;39.230;9.122;2023-03-14T10:16:02;21.70;48.80
67598;DHT22;62026;39.230;9.122;2023-03-14T10:18:33;21.70;46.40
67598;DHT22;62026;39.230;9.122;2023-03-14T10:21:05;21.70;45.70
67598;DHT22;62026;39.230;9.122;2023-03-14T10:23:32;21.70;44.10
67598;DHT22;62026;39.230;9.122;2023-03-14T10:26:16;21.70;44.20
67598;DHT22;62026;39.230;9.122;2023-03-14T10:29:09;21.90;43.90
67598;DHT22;62026;39.230;9.122;2023-03-14T10:34:44;21.90;41.70
67598;DHT22;62026;39.230;9.122;2023-03-14T10:37:22;21.90;41.80
67598;DHT22;62026;39.230;9.122;2023-03-14T10:39:56;21.80;41.40
67598;DHT22;62026;39.230;9.122;2023-03-14T10:42:39;21.80;42.30
67598;DHT22;62026;39.230;9.122;2023-03-14T10:45:38;21.80;42.50
67598;DHT22;62026;39.230;9.122;2023-03-14T10:53:49;21.40;43.70
67598;DHT22;62026;39.230;9.122;2023-03-14T10:56:23;21.40;44.20
67598;DHT22;62026;39.230;9.122;2023-03-14T10:58:54;21.50;44.30
67598;DHT22;62026;39.230;9.122;2023-03-14T11:01:44;21.40;44.10
67598;DHT22;62026;39.230;9.122;2023-03-14T11:07:45;21.30;44.30
67598;DHT22;62026;39.230;9.122;2023-03-14T11:10:30;21.10;44.30
67598;DHT22;62026;39.230;9.122;2023-03-14T11:13:04;21.00;44.60
67598;DHT22;62026;39.230;9.122;2023-03-14T11:18:55;20.80;44.80
67598;DHT22;62026;39.230;9.122;2023-03-14T11:24:36;20.60;44.70
67598;DHT22;62026;39.230;9.122;2023-03-14T11:27:23;20.60;44.60
67598;DHT22;62026;39.230;9.122;2023-03-14T11:41:10;20.10;43.00
67598;DHT22;62026;39.230;9.122;2023-03-14T11:43:48;20.00;42.10
67598;DHT22;62026;39.230;9.122;2023-03-14T11:49:03;20.00;42.50
67598;DHT22;62026;39.230;9.122;2023-03-14T11:51:40;20.00;42.90
67598;DHT22;62026;39.230;9.122;2023-03-14T11:57:05;19.80;43.50
67598;DHT22;62026;39.230;9.122;2023-03-14T12:02:25;19.70;45.00
67598;DHT22;62026;39.230;9.122;2023-03-14T12:05:31;19.60;45.30
67598;DHT22;62026;39.230;9.122;2023-03-14T12:13:36;19.60;44.40
67598;DHT22;62026;39.230;9.122;2023-03-14T12:18:48;19.50;43.80
67598;DHT22;62026;39.230;9.122;2023-03-14T12:21:15;19.50;43.90
67598;DHT22;62026;39.230;9.122;2023-03-14T12:23:44;19.40;43.30
67598;DHT22;62026;39.230;9.122;2023-03-14T12:26:22;19.40;43.50
67598;DHT22;62026;39.230;9.122;2023-03-14T12:31:41;19.50;43.20
67598;DHT22;62026;39.230;9.122;2023-03-14T12:42:57;19.40;42.00
67598;DHT22;62026;39.230;9.122;2023-03-14T12:45:35;19.30;42.50
67598;DHT22;62026;39.230;9.122;2023-03-14T12:48:20;19.30;42.10
67598;DHT22;62026;39.230;9.122;2023-03-14T12:51:02;19.30;42.20
67598;DHT22;62026;39.230;9.122;2023-03-14T12:59:57;19.20;42.50
67598;DHT22;62026;39.230;9.122;2023-03-14T13:02:40;19.30;43.00
67598;DHT22;62026;39.230;9.122;2023-03-14T13:05:20;19.20;43.20
67598;DHT22;62026;39.230;9.122;2023-03-14T13:10:25;19.20;43.70
67598;DHT22;62026;39.230;9.122;2023-03-14T13:13:24;19.20;44.00
67598;DHT22;62026;39.230;9.122;2023-03-14T13:16:00;19.20;44.90
67598;DHT22;62026;39.230;9.122;2023-03-14T13:21:21;19.10;44.70
67598;DHT22;62026;39.230;9.122;2023-03-14T13:24:07;19.00;45.10
67598;DHT22;62026;39.230;9.122;2023-03-14T13:26:53;19.00;45.10
67598;DHT22;62026;39.230;9.122;2023-03-14T13:29:31;19.00;45.50
67598;DHT22;62026;39.230;9.122;2023-03-14T13:32:12;19.00;45.80
67598;DHT22;62026;39.230;9.122;2023-03-14T13:34:42;18.90;46.40
67598;DHT22;62026;39.230;9.122;2023-03-14T13:37:20;18.90;46.50
67598;DHT22;62026;39.230;9.122;2023-03-14T13:39:55;18.90;46.40
67598;DHT22;62026;39.230;9.122;2023-03-14T13:42:29;18.80;46.30
67598;DHT22;62026;39.230;9.122;2023-03-14T13:44:56;18.80;47.30
67598;DHT22;62026;39.230;9.122;2023-03-14T13:47:25;18.90;47.70
67598;DHT22;62026;39.230;9.122;2023-03-14T13:49:52;18.90;48.10
67598;DHT22;62026;39.230;9.122;2023-03-14T13:54:53;18.80;48.80
67598;DHT22;62026;39.230;9.122;2023-03-14T13:57:19;18.80;48.90
67598;DHT22;62026;39.230;9.122;2023-03-14T13:59:59;18.80;49.00
67598;DHT22;62026;39.230;9.122;2023-03-14T14:02:38;18.80;49.10
67598;DHT22;62026;39.230;9.122;2023-03-14T14:05:05;18.70;49.20
67598;DHT22;62026;39.230;9.122;2023-03-14T14:07:31;18.80;49.20
67598;DHT22;62026;39.230;9.122;2023-03-14T14:09:58;18.70;49.00
67598;DHT22;62026;39.230;9.122;2023-03-14T14:13:20;18.60;49.00
67598;DHT22;62026;39.230;9.122;2023-03-14T14:15:28;18.50;48.80
67598;DHT22;62026;39.230;9.122;2023-03-14T14:18:11;18.50;49.10
67598;DHT22;62026;39.230;9.122;2023-03-14T14:20:45;18.50;49.20
67598;DHT22;62026;39.230;9.122;2023-03-14T14:23:21;18.50;49.00
67598;DHT22;62026;39.230;9.122;2023-03-14T14:25:55;18.40;49.10
67598;DHT22;62026;39.230;9.122;2023-03-14T14:28:26;18.40;49.30
67598;DHT22;62026;39.230;9.122;2023-03-14T14:33:55;18.40;49.70
67598;DHT22;62026;39.230;9.122;2023-03-14T14:36:32;18.30;50.00
67598;DHT22;62026;39.230;9.122;2023-03-14T14:39:10;18.30;49.90
67598;DHT22;62026;39.230;9.122;2023-03-14T14:41:42;18.30;50.40
67598;DHT22;62026;39.230;9.122;2023-03-14T14:44:13;18.20;49.90
67598;DHT22;62026;39.230;9.122;2023-03-14T14:46:55;18.20;50.50
67598;DHT22;62026;39.230;9.122;2023-03-14T14:49:30;18.20;50.60
67598;DHT22;62026;39.230;9.122;2023-03-14T14:52:13;18.20;50.80
67598;DHT22;62026;39.230;9.122;2023-03-14T14:54:47;18.20;50.60
67598;DHT22;62026;39.230;9.122;2023-03-14T14:57:25;18.20;50.40
67598;DHT22;62026;39.230;9.122;2023-03-14T15:00:01;18.20;50.50
67598;DHT22;62026;39.230;9.122;2023-03-14T15:02:37;18.10;50.90
67598;DHT22;62026;39.230;9.122;2023-03-14T15:05:18;18.00;51.20
67598;DHT22;62026;39.230;9.122;2023-03-14T15:07:46;18.00;51.30
67598;DHT22;62026;39.230;9.122;2023-03-14T15:10:18;18.00;51.30
67598;DHT22;62026;39.230;9.122;2023-03-14T15:12:45;18.00;51.60
67598;DHT22;62026;39.230;9.122;2023-03-14T15:15:14;17.90;51.40
67598;DHT22;62026;39.230;9.122;2023-03-14T15:17:40;17.80;51.80
67598;DHT22;62026;39.230;9.122;2023-03-14T15:20:11;17.80;51.80
67598;DHT22;62026;39.230;9.122;2023-03-14T15:22:40;17.80;51.70
67598;DHT22;62026;39.230;9.122;2023-03-14T15:25:07;17.80;51.90
67598;DHT22;62026;39.230;9.122;2023-03-14T15:27:34;17.80;52.20
67598;DHT22;62026;39.230;9.122;2023-03-14T15:30:00;17.80;52.50
67598;DHT22;62026;39.230;9.122;2023-03-14T15:32:26;17.70;52.80
67598;DHT22;62026;39.230;9.122;2023-03-14T15:34:54;17.70;53.20
67598;DHT22;62026;39.230;9.122;2023-03-14T15:37:20;17.60;53.30
67598;DHT22;62026;39.230;9.122;2023-03-14T15:39:47;17.60;53.50
67598;DHT22;62026;39.230;9.122;2023-03-14T15:42:13;17.70;53.50
67598;DHT22;62026;39.230;9.122;2023-03-14T15:44:39;17.70;53.70
67598;DHT22;62026;39.230;9.122;2023-03-14T15:47:06;17.60;53.60
67598;DHT22;62026;39.230;9.122;2023-03-14T15:49:32;17.60;53.70
67598;DHT22;62026;39.230;9.122;2023-03-14T15:51:58;17.60;53.90
67598;DHT22;62026;39.230;9.122;2023-03-14T15:54:25;17.50;53.90
67598;DHT22;62026;39.230;9.122;2023-03-14T15:56:55;17.60;53.70
67598;DHT22;62026;39.230;9.122;2023-03-14T15:59:22;17.50;53.60
67598;DHT22;62026;39.230;9.122;2023-03-14T16:01:48;17.50;53.60
67598;DHT22;62026;39.230;9.122;2023-03-14T16:04:15;17.50;53.60
67598;DHT22;62026;39.230;9.122;2023-03-14T16:06:41;17.50;53.20
67598;DHT22;62026;39.230;9.122;2023-03-14T16:09:11;17.50;53.30
67598;DHT22;62026;39.230;9.122;2023-03-14T16:11:37;17.40;53.10
67598;DHT22;62026;39.230;9.122;2023-03-14T16:14:04;17.40;53.10
67598;DHT22;62026;39.230;9.122;2023-03-14T16:16:30;17.40;53.40
67598;DHT22;62026;39.230;9.122;2023-03-14T16:18:56;17.40;53.40
67598;DHT22;62026;39.230;9.122;2023-03-14T16:21:22;17.40;53.50
67598;DHT22;62026;39.230;9.122;2023-03-14T16:23:48;17.40;53.70
67598;DHT22;62026;39.230;9.122;2023-03-14T16:26:16;17.30;53.80
67598;DHT22;62026;39.230;9.122;2023-03-14T16:28:45;17.30;54.20
67598;DHT22;62026;39.230;9.122;2023-03-14T16:31:14;17.30;54.10
67598;DHT22;62026;39.230;9.122;2023-03-14T16:33:42;17.30;54.00
67598;DHT22;62026;39.230;9.122;2023-03-14T16:36:10;17.20;54.10
67598;DHT22;62026;39.230;9.122;2023-03-14T16:38:40;17.20;54.20
67598;DHT22;62026;39.230;9.122;2023-03-14T16:41:13;17.20;54.20
67598;DHT22;62026;39.230;9.122;2023-03-14T16:43:44;17.20;54.30
67598;DHT22;62026;39.230;9.122;2023-03-14T16:46:13;17.20;54.20
67598;DHT22;62026;39.230;9.122;2023-03-14T16:48:44;17.20;54.40
67598;DHT22;62026;39.230;9.122;2023-03-14T16:51:10;17.20;54.50
67598;DHT22;62026;39.230;9.122;2023-03-14T16:53:36;17.20;54.90
67598;DHT22;62026;39.230;9.122;2023-03-14T16:56:03;17.10;55.00
67598;DHT22;62026;39.230;9.122;2023-03-14T16:58:29;17.10;55.20
67598;DHT22;62026;39.230;9.122;2023-03-14T17:00:56;17.10;55.40
67598;DHT22;62026;39.230;9.122;2023-03-14T17:03:22;17.00;55.40
67598;DHT22;62026;39.230;9.122;2023-03-14T17:05:50;17.00;55.70
67598;DHT22;62026;39.230;9.122;2023-03-14T17:08:18;17.00;55.80
67598;DHT22;62026;39.230;9.122;2023-03-14T17:10:46;17.00;56.10
67598;DHT22;62026;39.230;9.122;2023-03-14T17:13:13;16.90;56.20
67598;DHT22;62026;39.230;9.122;2023-03-14T17:15:44;16.90;56.40
67598;DHT22;62026;39.230;9.122;2023-03-14T17:18:11;16.90;56.50
67598;DHT22;62026;39.230;9.122;2023-03-14T17:20:37;16.90;56.60